createdAt,value
2022-11-29T00:00:07.523Z,17.60
2022-11-29T00:01:07.659Z,20.70
2022-11-29T00:02:07.349Z,21.30
2022-11-29T00:03:07.655Z,21.30
2022-11-29T00:04:07.162Z,22.90
2022-11-29T00:05:07.147Z,24.00
2022-11-29T00:06:07.430Z,24.00
2022-11-29T00:07:07.221Z,18.10
2022-11-29T00:08:07.105Z,22.80
2022-11-29T00:09:07.260Z,20.30
2022-11-29T00:10:07.071Z,15.40
2022-11-29T00:11:07.336Z,18.90
2022-11-29T00:12:07.369Z,14.80
2022-11-29T00:13:07.130Z,23.80
2022-11-29T00:14:07.017Z,15.90
2022-11-29T00:15:07.267Z,16.20
2022-11-29T00:16:07.477Z,16.80
2022-11-29T00:17:07.753Z,14.30
2022-11-29T00:18:07.154Z,14.10
2022-11-29T00:19:07.058Z,16.80
2022-11-29T00:20:07.258Z,15.40
2022-11-29T00:21:06.948Z,18.40
2022-11-29T00:22:06.854Z,20.30
2022-11-29T00:23:06.856Z,15.50
2022-11-29T00:24:06.828Z,14.40
2022-11-29T00:25:06.817Z,19.00
2022-11-29T00:26:07.087Z,15.20
2022-11-29T00:27:07.263Z,14.40
2022-11-29T00:28:07.121Z,13.90
2022-11-29T00:29:06.762Z,13.80
2022-11-29T00:30:06.825Z,16.20
2022-11-29T00:31:07.021Z,13.60
2022-11-29T00:32:06.692Z,11.30
2022-11-29T00:33:06.957Z,12.90
2022-11-29T00:34:06.653Z,11.40
2022-11-29T00:35:09.637Z,11.80
2022-11-29T00:36:07.695Z,9.50
2022-11-29T00:37:06.819Z,11.40
2022-11-29T00:38:06.585Z,10.80
2022-11-29T00:39:07.680Z,12.20
2022-11-29T00:40:06.568Z,10.90
2022-11-29T00:41:06.815Z,10.00
2022-11-29T00:42:06.525Z,12.60
2022-11-29T00:43:06.754Z,10.00
2022-11-29T00:44:06.486Z,10.50
2022-11-29T00:45:06.647Z,10.90
2022-11-29T00:46:06.558Z,10.40
2022-11-29T00:47:06.636Z,12.90
2022-11-29T00:48:06.418Z,13.30
2022-11-29T00:49:06.658Z,14.60
2022-11-29T00:50:06.382Z,10.70
2022-11-29T00:51:06.397Z,12.20
2022-11-29T00:52:06.348Z,10.70
2022-11-29T00:53:06.410Z,10.40
2022-11-29T00:54:06.324Z,13.20
2022-11-29T00:55:06.577Z,13.50
2022-11-29T00:56:06.433Z,10.20
2022-11-29T00:57:06.840Z,11.20
2022-11-29T00:58:06.251Z,11.20
2022-11-29T00:59:06.434Z,15.00
2022-11-29T01:00:06.421Z,15.20
2022-11-29T01:01:06.459Z,10.60
2022-11-29T01:02:06.390Z,13.40
2022-11-29T01:03:06.462Z,16.00
2022-11-29T01:04:06.521Z,11.60
2022-11-29T01:05:06.202Z,14.90
2022-11-29T01:06:06.420Z,10.80
2022-11-29T01:07:06.355Z,12.50
2022-11-29T01:08:06.468Z,11.50
2022-11-29T01:09:06.309Z,14.60
2022-11-29T01:10:06.226Z,12.80
2022-11-29T01:11:06.347Z,16.10
2022-11-29T01:12:06.326Z,11.70
2022-11-29T01:13:06.131Z,13.00
2022-11-29T01:14:05.981Z,13.40
2022-11-29T01:15:06.377Z,15.00
2022-11-29T01:16:06.060Z,15.60
2022-11-29T01:17:06.581Z,13.20
2022-11-29T01:18:05.907Z,17.70
2022-11-29T01:19:06.152Z,16.60
2022-11-29T01:20:06.041Z,17.10
2022-11-29T01:21:05.945Z,16.80
2022-11-29T01:22:05.985Z,14.60
2022-11-29T01:23:06.010Z,17.20
2022-11-29T01:24:05.960Z,19.90
2022-11-29T01:25:05.793Z,16.80
2022-11-29T01:26:07.089Z,17.10
2022-11-29T01:27:05.761Z,15.80
2022-11-29T01:28:05.848Z,19.40
2022-11-29T01:29:05.912Z,13.90
2022-11-29T01:30:06.007Z,14.60
2022-11-29T01:31:05.750Z,14.60
2022-11-29T01:32:05.928Z,14.40
2022-11-29T01:33:05.658Z,16.50
2022-11-29T01:34:05.665Z,13.40
2022-11-29T01:35:05.617Z,14.00
2022-11-29T01:36:05.947Z,13.90
2022-11-29T01:37:05.585Z,15.60
2022-11-29T01:38:05.579Z,17.70
2022-11-29T01:39:05.688Z,27.80
2022-11-29T01:40:05.651Z,27.10
2022-11-29T01:41:05.950Z,25.30
2022-11-29T01:42:05.704Z,23.20
2022-11-29T01:43:06.036Z,29.70
2022-11-29T01:44:05.470Z,21.20
2022-11-29T01:45:05.738Z,26.50
2022-11-29T01:46:05.510Z,31.40
2022-11-29T01:47:05.775Z,34.60
2022-11-29T01:48:05.901Z,30.80
2022-11-29T01:49:05.372Z,21.50
2022-11-29T01:50:05.572Z,17.80
2022-11-29T01:51:05.622Z,18.80
2022-11-29T01:52:05.321Z,30.30
2022-11-29T01:53:05.303Z,27.80
2022-11-29T01:54:05.557Z,37.30
2022-11-29T01:55:05.352Z,33.90
2022-11-29T01:56:05.532Z,34.80
2022-11-29T01:57:05.526Z,35.30
2022-11-29T01:58:05.425Z,20.90
2022-11-29T01:59:05.602Z,26.00
2022-11-29T02:00:05.332Z,48.50
2022-11-29T02:01:05.455Z,18.40
2022-11-29T02:02:05.596Z,37.80
2022-11-29T02:03:05.272Z,36.60
2022-11-29T02:04:05.126Z,38.60
2022-11-29T02:05:05.392Z,28.10
2022-11-29T02:06:05.374Z,25.10
2022-11-29T02:07:05.324Z,21.70
2022-11-29T02:08:05.065Z,19.40
2022-11-29T02:09:05.342Z,30.40
2022-11-29T02:10:05.473Z,27.60
2022-11-29T02:11:05.269Z,25.30
2022-11-29T02:12:05.054Z,19.50
2022-11-29T02:13:05.352Z,19.60
2022-11-29T02:14:05.104Z,22.90
2022-11-29T02:15:05.181Z,40.80
2022-11-29T02:16:05.293Z,31.80
2022-11-29T02:17:05.226Z,17.70
2022-11-29T02:18:05.111Z,29.90
2022-11-29T02:19:05.010Z,29.50
2022-11-29T02:20:06.025Z,30.40
2022-11-29T02:21:04.820Z,45.30
2022-11-29T02:22:05.151Z,21.50
2022-11-29T02:23:05.084Z,48.20
2022-11-29T02:24:04.772Z,43.30
2022-11-29T02:25:04.986Z,30.90
2022-11-29T02:26:04.835Z,35.10
2022-11-29T02:27:05.004Z,45.90
2022-11-29T02:28:05.117Z,19.40
2022-11-29T02:29:05.116Z,49.00
2022-11-29T02:30:04.858Z,56.00
2022-11-29T02:31:05.109Z,43.00
2022-11-29T02:32:04.690Z,44.60
2022-11-29T02:33:04.917Z,34.90
2022-11-29T02:34:04.611Z,37.90
2022-11-29T02:35:04.926Z,32.10
2022-11-29T02:36:04.635Z,24.40
2022-11-29T02:37:11.305Z,36.80
2022-11-29T02:38:06.677Z,66.80
2022-11-29T02:39:04.999Z,40.30
2022-11-29T02:40:04.787Z,31.40
2022-11-29T02:41:04.767Z,25.60
2022-11-29T02:42:04.732Z,30.50
2022-11-29T02:43:04.443Z,31.30
2022-11-29T02:44:04.417Z,20.00
2022-11-29T02:45:04.874Z,22.60
2022-11-29T02:46:04.435Z,18.80
2022-11-29T02:47:04.704Z,46.20
2022-11-29T02:48:04.637Z,21.80
2022-11-29T02:49:04.641Z,29.20
2022-11-29T02:50:04.782Z,30.50
2022-11-29T02:51:04.759Z,27.20
2022-11-29T02:52:04.602Z,19.00
2022-11-29T02:53:04.417Z,36.90
2022-11-29T02:54:04.448Z,36.80
2022-11-29T02:55:04.383Z,36.80
2022-11-29T02:56:04.497Z,40.60
2022-11-29T02:57:04.293Z,36.10
2022-11-29T02:58:04.568Z,66.00
2022-11-29T02:59:04.161Z,67.40
2022-11-29T03:00:04.147Z,40.10
2022-11-29T03:01:04.527Z,34.80
2022-11-29T03:02:04.201Z,32.70
2022-11-29T03:03:04.169Z,39.30
2022-11-29T03:04:04.534Z,53.90
2022-11-29T03:05:04.319Z,45.80
2022-11-29T03:06:04.220Z,88.70
2022-11-29T03:07:04.363Z,53.70
2022-11-29T03:08:04.005Z,56.50
2022-11-29T03:09:03.996Z,56.20
2022-11-29T03:10:04.285Z,42.00
2022-11-29T03:11:04.261Z,36.50
2022-11-29T03:12:04.121Z,23.80
2022-11-29T03:13:03.931Z,55.60
2022-11-29T03:14:04.088Z,85.30
2022-11-29T03:15:04.221Z,27.10
2022-11-29T03:16:04.223Z,39.20
2022-11-29T03:17:04.373Z,83.80
2022-11-29T03:18:03.857Z,37.60
2022-11-29T03:19:03.828Z,28.70
2022-11-29T03:20:03.810Z,57.00
2022-11-29T03:21:04.043Z,31.30
2022-11-29T03:22:03.930Z,20.60
2022-11-29T03:23:04.247Z,134.70
2022-11-29T03:24:03.978Z,53.00
2022-11-29T03:25:04.071Z,57.40
2022-11-29T03:26:03.822Z,33.20
2022-11-29T03:27:03.970Z,165.20
2022-11-29T03:28:03.931Z,61.10
2022-11-29T03:29:03.945Z,80.00
2022-11-29T03:30:03.706Z,51.60
2022-11-29T03:31:03.967Z,37.90
2022-11-29T03:32:03.624Z,66.40
2022-11-29T03:33:03.689Z,95.30
2022-11-29T03:34:03.868Z,50.00
2022-11-29T03:35:03.711Z,28.30
2022-11-29T03:36:03.530Z,40.10
2022-11-29T03:37:03.723Z,34.00
2022-11-29T03:38:03.788Z,47.60
2022-11-29T03:39:03.848Z,39.20
2022-11-29T03:40:03.446Z,140.50
2022-11-29T03:41:03.603Z,99.60
2022-11-29T03:42:03.898Z,117.70
2022-11-29T03:43:03.586Z,122.50
2022-11-29T03:44:03.629Z,60.00
2022-11-29T03:45:03.378Z,190.50
2022-11-29T03:46:03.683Z,78.80
2022-11-29T03:47:03.968Z,74.90
2022-11-29T03:48:03.577Z,30.40
2022-11-29T03:49:03.530Z,45.60
2022-11-29T03:50:03.436Z,143.80
2022-11-29T03:51:03.510Z,71.70
2022-11-29T03:52:04.381Z,62.90
2022-11-29T03:53:03.405Z,79.70
2022-11-29T03:54:03.326Z,40.00
2022-11-29T03:55:03.304Z,62.90
2022-11-29T03:56:03.600Z,106.80
2022-11-29T03:57:03.549Z,77.00
2022-11-29T03:58:03.485Z,37.60
2022-11-29T03:59:03.646Z,210.80
2022-11-29T04:00:03.096Z,264.60
2022-11-29T04:01:03.089Z,107.50
2022-11-29T04:02:03.102Z,53.10
2022-11-29T04:03:03.125Z,48.40
2022-11-29T04:04:03.159Z,84.30
2022-11-29T04:05:03.335Z,58.70
2022-11-29T04:06:03.451Z,77.10
2022-11-29T04:07:03.298Z,77.30
2022-11-29T04:08:03.384Z,48.40
2022-11-29T04:09:03.228Z,57.80
2022-11-29T04:10:03.249Z,44.00
2022-11-29T04:11:02.906Z,33.10
2022-11-29T04:12:02.923Z,114.40
2022-11-29T04:13:02.870Z,91.70
2022-11-29T04:14:02.866Z,77.60
2022-11-29T04:15:02.857Z,90.60
2022-11-29T04:16:03.004Z,115.70
2022-11-29T04:17:02.833Z,72.20
2022-11-29T04:18:02.805Z,167.10
2022-11-29T04:19:02.778Z,73.50
2022-11-29T04:20:02.759Z,49.50
2022-11-29T04:21:02.731Z,112.00
2022-11-29T04:22:02.761Z,265.70
2022-11-29T04:23:02.720Z,214.40
2022-11-29T04:24:02.693Z,283.40
2022-11-29T04:25:02.686Z,271.60
2022-11-29T04:26:02.645Z,81.90
2022-11-29T04:27:02.690Z,131.40
2022-11-29T04:28:02.692Z,79.50
2022-11-29T04:29:02.618Z,161.40
2022-11-29T04:30:02.585Z,132.80
2022-11-29T04:31:02.619Z,39.00
2022-11-29T04:32:02.583Z,73.90
2022-11-29T04:33:02.533Z,79.70
2022-11-29T04:34:02.519Z,80.10
2022-11-29T04:35:02.511Z,97.40
2022-11-29T04:36:02.472Z,86.40
2022-11-29T04:37:02.511Z,107.70
2022-11-29T04:38:02.492Z,246.70
2022-11-29T04:39:02.468Z,60.90
2022-11-29T04:40:02.437Z,67.10
2022-11-29T04:41:02.395Z,108.80
2022-11-29T04:42:02.538Z,215.20
2022-11-29T04:43:02.364Z,253.20
2022-11-29T04:44:02.354Z,141.20
2022-11-29T04:45:02.333Z,118.30
2022-11-29T04:46:02.395Z,167.90
2022-11-29T04:47:02.322Z,197.50
2022-11-29T04:48:02.281Z,37.70
2022-11-29T04:49:02.249Z,117.30
2022-11-29T04:50:02.239Z,39.20
2022-11-29T04:51:02.233Z,24.00
2022-11-29T04:52:02.227Z,94.80
2022-11-29T04:53:02.179Z,145.00
2022-11-29T04:54:02.161Z,48.60
2022-11-29T04:55:02.176Z,41.20
2022-11-29T04:56:02.136Z,76.30
2022-11-29T04:57:02.152Z,156.30
2022-11-29T04:58:02.115Z,102.80
2022-11-29T04:59:02.074Z,33.50
2022-11-29T05:00:02.060Z,26.70
2022-11-29T05:01:02.049Z,41.70
2022-11-29T05:02:02.109Z,80.20
2022-11-29T05:03:02.091Z,41.60
2022-11-29T05:04:01.992Z,27.80
2022-11-29T05:05:01.986Z,95.70
2022-11-29T05:06:01.967Z,99.80
2022-11-29T05:07:01.940Z,53.80
2022-11-29T05:08:01.969Z,95.90
2022-11-29T05:09:01.908Z,68.00
2022-11-29T05:10:01.892Z,87.40
2022-11-29T05:11:01.870Z,125.00
2022-11-29T05:12:01.846Z,120.60
2022-11-29T05:13:01.878Z,169.10
2022-11-29T05:14:01.821Z,59.60
2022-11-29T05:15:01.791Z,29.00
2022-11-29T05:16:01.825Z,36.20
2022-11-29T05:17:01.787Z,46.30
2022-11-29T05:18:01.773Z,35.20
2022-11-29T05:19:01.724Z,41.30
2022-11-29T05:20:01.717Z,103.50
2022-11-29T05:21:01.698Z,72.20
2022-11-29T05:22:01.683Z,64.40
2022-11-29T05:23:01.699Z,59.90
2022-11-29T05:24:01.659Z,40.60
2022-11-29T05:25:01.622Z,44.80
2022-11-29T05:26:01.615Z,53.80
2022-11-29T05:27:01.592Z,37.00
2022-11-29T05:28:04.498Z,43.50
2022-11-29T05:29:03.568Z,34.40
2022-11-29T05:30:01.563Z,58.00
2022-11-29T05:31:01.580Z,66.90
2022-11-29T05:32:01.511Z,44.00
2022-11-29T05:33:01.561Z,78.30
2022-11-29T05:34:01.476Z,44.50
2022-11-29T05:35:01.464Z,46.30
2022-11-29T05:36:01.437Z,28.80
2022-11-29T05:37:01.430Z,40.80
2022-11-29T05:38:01.450Z,41.60
2022-11-29T05:39:01.399Z,24.10
2022-11-29T05:40:01.369Z,50.20
2022-11-29T05:41:01.375Z,39.60
2022-11-29T05:42:01.333Z,58.40
2022-11-29T05:43:01.342Z,22.20
2022-11-29T05:44:01.295Z,38.40
2022-11-29T05:45:01.286Z,58.90
2022-11-29T05:46:01.376Z,51.00
2022-11-29T05:47:01.255Z,43.60
2022-11-29T05:48:01.329Z,50.70
2022-11-29T05:49:01.224Z,50.30
2022-11-29T05:50:01.209Z,53.10
2022-11-29T05:51:01.179Z,36.70
2022-11-29T05:52:01.174Z,43.60
2022-11-29T05:53:01.187Z,41.70
2022-11-29T05:54:01.150Z,138.10
2022-11-29T05:55:01.105Z,224.30
2022-11-29T05:56:01.102Z,98.50
2022-11-29T05:57:01.079Z,162.60
2022-11-29T05:58:01.092Z,79.40
2022-11-29T05:59:01.046Z,77.70
2022-11-29T06:00:01.030Z,93.40
2022-11-29T06:01:00.998Z,84.00
2022-11-29T06:02:01.025Z,85.30
2022-11-29T06:03:01.060Z,79.50
2022-11-29T06:04:00.964Z,75.30
2022-11-29T06:05:00.940Z,103.90
2022-11-29T06:06:00.943Z,93.60
2022-11-29T06:07:00.905Z,96.60
2022-11-29T06:08:00.963Z,110.30
2022-11-29T06:09:00.869Z,73.60
2022-11-29T06:10:01.979Z,74.40
2022-11-29T06:11:01.849Z,52.60
2022-11-29T06:12:00.817Z,68.90
2022-11-29T06:13:00.837Z,60.10
2022-11-29T06:14:00.781Z,42.00
2022-11-29T06:15:00.774Z,114.50
2022-11-29T06:16:00.782Z,72.20
2022-11-29T06:17:00.746Z,35.80
2022-11-29T06:18:00.754Z,36.40
2022-11-29T06:19:00.700Z,61.10
2022-11-29T06:20:00.680Z,53.20
2022-11-29T06:21:00.671Z,71.40
2022-11-29T06:22:00.641Z,37.90
2022-11-29T06:23:00.666Z,48.40
2022-11-29T06:24:00.619Z,44.60
2022-11-29T06:25:00.595Z,32.90
2022-11-29T06:26:03.884Z,57.70
2022-11-29T06:27:01.572Z,55.10
2022-11-29T06:28:00.565Z,40.70
2022-11-29T06:29:00.515Z,47.90
2022-11-29T06:30:01.500Z,45.30
2022-11-29T06:31:00.519Z,43.30
2022-11-29T06:32:00.485Z,92.90
2022-11-29T06:33:00.491Z,51.30
2022-11-29T06:34:00.448Z,48.10
2022-11-29T06:35:00.423Z,38.80
2022-11-29T06:36:00.415Z,47.10
2022-11-29T06:37:00.414Z,61.10
2022-11-29T06:38:00.425Z,28.60
2022-11-29T06:39:00.346Z,61.50
2022-11-29T06:40:00.339Z,44.70
2022-11-29T06:41:02.376Z,45.40
2022-11-29T06:42:01.299Z,52.90
2022-11-29T06:43:00.320Z,41.40
2022-11-29T06:44:00.259Z,58.20
2022-11-29T06:45:00.242Z,49.60
2022-11-29T06:46:00.233Z,61.40
2022-11-29T06:47:00.262Z,53.90
2022-11-29T06:48:00.243Z,49.60
2022-11-29T06:49:02.317Z,47.00
2022-11-29T06:50:01.166Z,40.40
2022-11-29T06:51:00.148Z,94.20
2022-11-29T06:52:00.131Z,92.90
2022-11-29T06:53:00.147Z,98.60
2022-11-29T06:54:00.097Z,63.20
2022-11-29T06:55:00.088Z,100.40
2022-11-29T06:56:00.066Z,86.00
2022-11-29T06:57:00.036Z,70.90
2022-11-29T06:58:00.051Z,54.70
2022-11-29T06:59:00.014Z,90.40
2022-11-29T06:59:59.994Z,144.00
2022-11-29T07:01:00.021Z,156.40
2022-11-29T07:02:00.006Z,140.10
2022-11-29T07:02:59.978Z,207.70
2022-11-29T07:03:59.944Z,131.80
2022-11-29T07:04:59.912Z,118.30
2022-11-29T07:05:59.885Z,182.50
2022-11-29T07:07:00.875Z,133.90
2022-11-29T07:07:59.938Z,123.80
2022-11-29T07:08:59.849Z,112.50
2022-11-29T07:09:59.822Z,115.50
2022-11-29T07:10:59.806Z,165.90
2022-11-29T07:11:59.786Z,108.70
2022-11-29T07:12:59.800Z,137.70
2022-11-29T07:13:59.747Z,157.70
2022-11-29T07:14:59.733Z,151.00
2022-11-29T07:15:59.783Z,246.10
2022-11-29T07:16:59.693Z,134.90
2022-11-29T07:17:59.716Z,231.20
2022-11-29T07:18:59.677Z,228.70
2022-11-29T07:19:59.654Z,91.50
2022-11-29T07:20:59.633Z,128.80
2022-11-29T07:21:59.610Z,136.10
2022-11-29T07:22:59.654Z,75.60
2022-11-29T07:23:59.581Z,237.50
2022-11-29T07:24:59.574Z,98.50
2022-11-29T07:25:59.545Z,208.60
2022-11-29T07:26:59.888Z,213.90
2022-11-29T07:28:00.558Z,172.50
2022-11-29T07:28:59.491Z,159.30
2022-11-29T07:29:59.470Z,187.10
2022-11-29T07:30:59.461Z,92.30
2022-11-29T07:31:59.446Z,169.50
2022-11-29T07:33:00.617Z,218.60
2022-11-29T07:34:00.456Z,211.40
2022-11-29T07:34:59.394Z,165.90
2022-11-29T07:35:59.385Z,206.70
2022-11-29T07:36:59.352Z,232.40
2022-11-29T07:37:59.343Z,121.10
2022-11-29T07:38:59.362Z,78.20
2022-11-29T07:39:59.313Z,90.40
2022-11-29T07:40:59.282Z,107.50
2022-11-29T07:41:59.277Z,169.70
2022-11-29T07:42:59.252Z,139.80
2022-11-29T07:43:59.277Z,97.80
2022-11-29T07:44:59.211Z,81.30
2022-11-29T07:45:59.214Z,81.20
2022-11-29T07:46:59.230Z,39.20
2022-11-29T07:47:59.169Z,48.40
2022-11-29T07:48:59.182Z,70.60
2022-11-29T07:49:59.136Z,47.70
2022-11-29T07:50:59.171Z,56.30
2022-11-29T07:51:59.097Z,49.60
2022-11-29T07:52:59.094Z,45.50
2022-11-29T07:53:59.113Z,50.30
2022-11-29T07:54:59.052Z,35.00
2022-11-29T07:55:59.033Z,66.30
2022-11-29T07:56:59.019Z,31.90
2022-11-29T07:57:58.987Z,44.40
2022-11-29T07:58:59.056Z,31.10
2022-11-29T07:59:58.959Z,52.90
2022-11-29T08:00:58.991Z,34.50
2022-11-29T08:01:58.981Z,47.40
2022-11-29T08:02:58.915Z,31.30
2022-11-29T08:03:58.926Z,46.30
2022-11-29T08:04:58.884Z,39.30
2022-11-29T08:05:58.855Z,40.90
2022-11-29T08:06:58.838Z,70.40
2022-11-29T08:07:58.867Z,71.00
2022-11-29T08:08:58.844Z,63.40
2022-11-29T08:09:58.801Z,51.70
2022-11-29T08:10:58.766Z,41.80
2022-11-29T08:11:58.751Z,55.10
2022-11-29T08:12:58.737Z,41.20
2022-11-29T08:13:58.747Z,33.40
2022-11-29T08:14:58.693Z,27.30
2022-11-29T08:15:58.748Z,30.30
2022-11-29T08:16:58.669Z,24.60
2022-11-29T08:17:58.661Z,30.80
2022-11-29T08:18:58.667Z,22.20
2022-11-29T08:20:03.724Z,32.40
2022-11-29T08:21:00.620Z,19.10
2022-11-29T08:21:58.586Z,25.10
2022-11-29T08:22:58.578Z,19.60
2022-11-29T08:23:58.582Z,21.40
2022-11-29T08:24:58.520Z,20.60
2022-11-29T08:25:58.520Z,14.60
2022-11-29T08:26:58.494Z,15.00
2022-11-29T08:27:58.476Z,12.90
2022-11-29T08:28:58.490Z,18.10
2022-11-29T08:29:58.438Z,16.80
2022-11-29T08:30:58.423Z,17.10
2022-11-29T08:31:58.475Z,17.50
2022-11-29T08:32:58.396Z,15.90
2022-11-29T08:33:58.400Z,13.10
2022-11-29T08:34:58.360Z,12.90
2022-11-29T08:35:58.338Z,18.20
2022-11-29T08:36:58.320Z,13.80
2022-11-29T08:37:58.323Z,15.10
2022-11-29T08:39:05.965Z,17.20
2022-11-29T08:40:00.262Z,15.40
2022-11-29T08:40:58.251Z,15.00
2022-11-29T08:41:58.238Z,15.00
2022-11-29T08:42:58.219Z,14.80
2022-11-29T08:43:58.224Z,19.10
2022-11-29T08:44:58.182Z,16.30
2022-11-29T08:45:58.200Z,15.10
2022-11-29T08:46:58.144Z,11.70
2022-11-29T08:47:58.137Z,14.90
2022-11-29T08:48:58.140Z,15.40
2022-11-29T08:49:58.102Z,13.10
2022-11-29T08:50:58.081Z,14.20
2022-11-29T08:51:58.068Z,15.80
2022-11-29T08:52:58.045Z,14.70
2022-11-29T08:53:58.066Z,13.40
2022-11-29T08:55:03.014Z,14.40
2022-11-29T08:55:59.997Z,12.50
2022-11-29T08:57:37.928Z,12.50
2022-11-29T08:57:59.951Z,13.80
2022-11-29T08:58:58.989Z,12.50
2022-11-29T08:59:57.928Z,10.20
2022-11-29T09:00:58.010Z,10.50
2022-11-29T09:01:57.930Z,9.70
2022-11-29T09:02:57.887Z,12.70
2022-11-29T09:03:57.992Z,12.80
2022-11-29T09:04:57.851Z,16.00
2022-11-29T09:05:57.829Z,15.50
2022-11-29T09:06:57.814Z,14.80
2022-11-29T09:07:57.829Z,13.90
2022-11-29T09:08:57.814Z,14.20
2022-11-29T09:09:57.753Z,14.30
2022-11-29T09:10:57.737Z,12.50
2022-11-29T09:11:57.731Z,12.80
2022-11-29T09:12:57.709Z,16.80
2022-11-29T09:13:57.721Z,12.80
2022-11-29T09:14:57.671Z,11.30
2022-11-29T09:15:57.658Z,14.30
2022-11-29T09:16:57.727Z,15.40
2022-11-29T09:17:57.632Z,18.60
2022-11-29T09:18:57.644Z,19.20
2022-11-29T09:19:57.587Z,19.10
2022-11-29T09:20:57.574Z,15.00
2022-11-29T09:21:57.552Z,15.20
2022-11-29T09:22:57.544Z,16.80
2022-11-29T09:23:57.556Z,20.60
2022-11-29T09:24:57.515Z,17.80
2022-11-29T09:25:57.494Z,21.60
2022-11-29T09:26:57.480Z,20.60
2022-11-29T09:27:57.451Z,27.90
2022-11-29T09:28:57.463Z,26.20
2022-11-29T09:29:57.420Z,28.90
2022-11-29T09:30:57.404Z,22.60
2022-11-29T09:31:57.444Z,25.00
2022-11-29T09:32:57.370Z,25.50
2022-11-29T09:33:57.379Z,20.60
2022-11-29T09:34:57.337Z,23.10
2022-11-29T09:35:57.319Z,25.90
2022-11-29T09:36:57.306Z,20.20
2022-11-29T09:37:57.300Z,20.40
2022-11-29T09:38:57.314Z,24.90
2022-11-29T09:39:57.262Z,26.60
2022-11-29T09:40:57.251Z,22.50
2022-11-29T09:41:57.225Z,32.30
2022-11-29T09:42:57.227Z,21.80
2022-11-29T09:43:57.243Z,23.90
2022-11-29T09:44:57.176Z,38.60
2022-11-29T09:45:57.214Z,55.80
2022-11-29T09:46:58.858Z,39.30
2022-11-29T09:47:58.120Z,52.00
2022-11-29T09:48:57.145Z,48.30
2022-11-29T09:49:57.078Z,67.40
2022-11-29T09:50:57.065Z,46.30
2022-11-29T09:51:57.043Z,40.10
2022-11-29T09:52:57.026Z,45.60
2022-11-29T09:53:57.010Z,37.60
2022-11-29T09:54:57.035Z,46.40
2022-11-29T09:55:56.987Z,30.80
2022-11-29T09:56:56.962Z,42.90
2022-11-29T09:57:56.942Z,45.40
2022-11-29T09:58:56.934Z,32.70
2022-11-29T09:59:56.951Z,65.00
2022-11-29T10:00:56.951Z,85.00
2022-11-29T10:01:56.905Z,29.40
2022-11-29T10:02:56.866Z,31.00
2022-11-29T10:03:56.842Z,30.80
2022-11-29T10:04:56.889Z,24.90
2022-11-29T10:05:56.805Z,35.20
2022-11-29T10:06:56.793Z,37.50
2022-11-29T10:07:56.833Z,27.80
2022-11-29T10:08:56.769Z,22.80
2022-11-29T10:09:56.774Z,23.30
2022-11-29T10:10:56.736Z,37.60
2022-11-29T10:11:56.721Z,32.00
2022-11-29T10:12:56.692Z,35.40
2022-11-29T10:13:56.689Z,30.70
2022-11-29T10:14:56.708Z,28.70
2022-11-29T10:15:56.653Z,38.30
2022-11-29T10:16:56.634Z,27.80
2022-11-29T10:17:56.603Z,24.70
2022-11-29T10:18:56.580Z,26.20
2022-11-29T10:19:56.598Z,27.30
2022-11-29T10:20:56.555Z,25.50
2022-11-29T10:21:56.540Z,31.00
2022-11-29T10:22:56.536Z,28.00
2022-11-29T10:23:56.501Z,23.40
2022-11-29T10:24:56.518Z,21.80
2022-11-29T10:25:56.474Z,24.40
2022-11-29T10:26:56.463Z,26.50
2022-11-29T10:27:56.431Z,25.50
2022-11-29T10:28:56.429Z,29.30
2022-11-29T10:29:57.445Z,25.10
2022-11-29T10:30:56.478Z,27.20
2022-11-29T10:31:57.372Z,32.10
2022-11-29T10:32:56.365Z,30.00
2022-11-29T10:33:56.336Z,41.90
2022-11-29T10:34:56.364Z,35.90
2022-11-29T10:35:56.303Z,46.10
2022-11-29T10:36:56.281Z,28.80
2022-11-29T10:38:29.269Z,33.10
2022-11-29T10:38:58.262Z,28.90
2022-11-29T10:39:56.260Z,37.60
2022-11-29T10:40:56.220Z,46.00
2022-11-29T10:41:56.208Z,41.20
2022-11-29T10:42:56.184Z,29.60
2022-11-29T10:43:56.173Z,26.50
2022-11-29T10:44:56.175Z,32.80
2022-11-29T10:45:57.167Z,30.90
2022-11-29T10:46:56.111Z,39.40
2022-11-29T10:47:56.097Z,42.60
2022-11-29T10:48:57.078Z,42.00
2022-11-29T10:49:56.100Z,42.20
2022-11-29T10:50:56.045Z,46.70
2022-11-29T10:51:56.030Z,31.90
2022-11-29T10:53:00.065Z,42.00
2022-11-29T10:53:57.002Z,40.50
2022-11-29T10:54:56.008Z,32.90
2022-11-29T10:55:55.963Z,36.60
2022-11-29T10:56:55.954Z,34.60
2022-11-29T10:57:55.925Z,41.10
2022-11-29T10:58:55.917Z,31.40
2022-11-29T10:59:55.932Z,31.10
2022-11-29T11:00:55.923Z,37.00
2022-11-29T11:01:55.859Z,38.10
2022-11-29T11:02:55.843Z,41.00
2022-11-29T11:03:55.828Z,30.90
2022-11-29T11:04:55.852Z,28.60
2022-11-29T11:05:55.851Z,33.00
2022-11-29T11:06:55.776Z,33.40
2022-11-29T11:07:55.797Z,30.80
2022-11-29T11:08:55.742Z,35.00
2022-11-29T11:09:55.758Z,33.00
2022-11-29T11:11:01.222Z,35.70
2022-11-29T11:11:57.689Z,34.70
2022-11-29T11:12:55.670Z,32.40
2022-11-29T11:13:55.664Z,32.90
2022-11-29T11:14:55.668Z,29.90
2022-11-29T11:15:55.621Z,32.80
2022-11-29T11:16:55.649Z,29.10
2022-11-29T11:17:55.582Z,27.30
2022-11-29T11:18:55.565Z,32.70
2022-11-29T11:19:55.596Z,22.50
2022-11-29T11:20:55.533Z,22.40
2022-11-29T11:21:55.515Z,29.50
2022-11-29T11:22:55.516Z,24.30
2022-11-29T11:23:55.479Z,30.70
2022-11-29T11:24:55.493Z,30.40
2022-11-29T11:25:55.444Z,30.30
2022-11-29T11:26:55.434Z,27.10
2022-11-29T11:27:55.409Z,25.60
2022-11-29T11:28:55.404Z,24.50
2022-11-29T11:29:55.411Z,23.60
2022-11-29T11:30:55.424Z,23.30
2022-11-29T11:31:55.342Z,30.00
2022-11-29T11:32:55.338Z,29.50
2022-11-29T11:33:55.307Z,33.10
2022-11-29T11:34:55.341Z,30.00
2022-11-29T11:35:55.303Z,28.50
2022-11-29T11:36:55.258Z,26.40
2022-11-29T11:37:55.263Z,28.60
2022-11-29T11:38:55.248Z,29.70
2022-11-29T11:39:55.253Z,24.10
2022-11-29T11:40:58.130Z,29.30
2022-11-29T11:41:56.170Z,29.00
2022-11-29T11:42:55.156Z,22.00
2022-11-29T11:43:55.192Z,30.60
2022-11-29T11:44:55.163Z,26.30
2022-11-29T11:45:55.142Z,27.50
2022-11-29T11:46:55.088Z,26.90
2022-11-29T11:47:55.077Z,31.30
2022-11-29T11:48:55.057Z,27.10
2022-11-29T11:49:55.107Z,28.50
2022-11-29T11:50:55.041Z,30.60
2022-11-29T11:51:54.999Z,32.10
2022-11-29T11:52:54.996Z,23.80
2022-11-29T11:53:54.972Z,26.90
2022-11-29T11:54:54.994Z,24.40
2022-11-29T11:55:54.942Z,26.30
2022-11-29T11:56:54.933Z,25.70
2022-11-29T11:57:54.911Z,23.20
2022-11-29T11:58:54.890Z,22.10
2022-11-29T11:59:54.901Z,20.10
2022-11-29T12:01:04.059Z,23.80
2022-11-29T12:01:56.851Z,22.50
2022-11-29T12:02:54.943Z,21.60
2022-11-29T12:03:54.811Z,23.00
2022-11-29T12:04:54.837Z,17.80
2022-11-29T12:05:54.784Z,21.40
2022-11-29T12:06:54.750Z,22.70
2022-11-29T12:08:10.038Z,20.10
2022-11-29T12:08:56.727Z,22.80
2022-11-29T12:09:54.754Z,19.60
2022-11-29T12:10:54.697Z,16.60
2022-11-29T12:11:54.698Z,21.00
2022-11-29T12:12:54.669Z,23.10
2022-11-29T12:13:54.664Z,17.70
2022-11-29T12:14:54.647Z,22.60
2022-11-29T12:15:54.638Z,25.10
2022-11-29T12:16:54.598Z,22.10
2022-11-29T12:17:54.565Z,23.90
2022-11-29T12:18:54.565Z,25.60
2022-11-29T12:19:54.579Z,22.60
2022-11-29T12:20:54.526Z,18.40
2022-11-29T12:21:54.503Z,24.60
2022-11-29T12:22:54.495Z,19.70
2022-11-29T12:23:54.460Z,18.60
2022-11-29T12:24:54.482Z,19.10
2022-11-29T12:25:54.506Z,20.50
2022-11-29T12:26:57.502Z,22.40
2022-11-29T12:27:55.396Z,23.00
2022-11-29T12:28:54.377Z,20.30
2022-11-29T12:29:54.401Z,17.90
2022-11-29T12:30:54.401Z,20.50
2022-11-29T12:31:54.329Z,23.20
2022-11-29T12:32:54.303Z,23.80
2022-11-29T12:33:54.291Z,29.00
2022-11-29T12:34:54.319Z,24.20
2022-11-29T12:35:54.265Z,23.80
2022-11-29T12:36:54.242Z,21.60
2022-11-29T12:37:54.245Z,23.20
2022-11-29T12:38:54.208Z,19.30
2022-11-29T12:39:54.218Z,21.40
2022-11-29T12:40:54.169Z,21.20
2022-11-29T12:41:54.432Z,20.30
2022-11-29T12:42:55.140Z,27.00
2022-11-29T12:43:54.136Z,33.60
2022-11-29T12:44:54.147Z,31.00
2022-11-29T12:45:54.091Z,27.70
2022-11-29T12:47:02.142Z,26.00
2022-11-29T12:47:56.057Z,30.70
2022-11-29T12:48:54.059Z,32.50
2022-11-29T12:49:54.064Z,33.10